sensor_id;sensor_type;location;lat;lon;timestamp;temperature;humidity
12477;DHT22;6303;51.504;6.300;2023-01-15T00:01:00;21.20;55.00
12477;DHT22;6303;51.504;6.300;2023-01-15T00:03:27;21.20;55.00
12477;DHT22;6303;51.504;6.300;2023-01-15T00:05:55;21.20;55.00
12477;DHT22;6303;51.504;6.300;2023-01-15T00:08:22;20.90;56.60
12477;DHT22;6303;51.504;6.300;2023-01-15T00:10:50;21.10;55.00
12477;DHT22;6303;51.504;6.300;2023-01-15T00:13:17;21.10;54.90
12477;DHT22;6303;51.504;6.300;2023-01-15T00:15:44;21.10;54.90
12477;DHT22;6303;51.504;6.300;2023-01-15T00:18:12;21.10;55.00
12477;DHT22;6303;51.504;6.300;2023-01-15T00:20:39;21.10;54.90
12477;DHT22;6303;51.504;6.300;2023-01-15T00:23:06;21.10;54.90
12477;DHT22;6303;51.504;6.300;2023-01-15T00:25:56;21.10;54.90
12477;DHT22;6303;51.504;6.300;2023-01-15T00:28:47;21.10;55.00
12477;DHT22;6303;51.504;6.300;2023-01-15T00:31:15;21.10;54.90
12477;DHT22;6303;51.504;6.300;2023-01-15T00:33:42;21.10;54.90
12477;DHT22;6303;51.504;6.300;2023-01-15T00:36:09;21.10;54.90
12477;DHT22;6303;51.504;6.300;2023-01-15T00:38:37;20.80;56.90
12477;DHT22;6303;51.504;6.300;2023-01-15T00:41:05;21.10;54.90
12477;DHT22;6303;51.504;6.300;2023-01-15T00:43:33;21.00;54.90
12477;DHT22;6303;51.504;6.300;2023-01-15T00:46:00;21.10;54.90
12477;DHT22;6303;51.504;6.300;2023-01-15T00:48:29;20.90;56.30
12477;DHT22;6303;51.504;6.300;2023-01-15T00:50:57;21.10;54.80
12477;DHT22;6303;51.504;6.300;2023-01-15T00:53:24;21.10;54.80
12477;DHT22;6303;51.504;6.300;2023-01-15T00:55:51;21.10;54.80
12477;DHT22;6303;51.504;6.300;2023-01-15T00:58:19;21.10;54.30
12477;DHT22;6303;51.504;6.300;2023-01-15T01:00:51;21.00;54.70
12477;DHT22;6303;51.504;6.300;2023-01-15T01:03:19;21.00;54.80
12477;DHT22;6303;51.504;6.300;2023-01-15T01:05:46;21.00;54.80
12477;DHT22;6303;51.504;6.300;2023-01-15T01:08:13;21.00;54.80
12477;DHT22;6303;51.504;6.300;2023-01-15T01:10:40;21.00;54.70
12477;DHT22;6303;51.504;6.300;2023-01-15T01:13:07;21.00;54.70
12477;DHT22;6303;51.504;6.300;2023-01-15T01:15:37;21.00;55.30
12477;DHT22;6303;51.504;6.300;2023-01-15T01:18:04;21.00;54.60
12477;DHT22;6303;51.504;6.300;2023-01-15T01:20:32;21.00;54.60
12477;DHT22;6303;51.504;6.300;2023-01-15T01:22:59;21.00;54.60
12477;DHT22;6303;51.504;6.300;2023-01-15T01:25:26;21.00;54.60
12477;DHT22;6303;51.504;6.300;2023-01-15T01:27:53;21.00;54.60
12477;DHT22;6303;51.504;6.300;2023-01-15T01:30:20;21.00;54.60
12477;DHT22;6303;51.504;6.300;2023-01-15T01:32:49;21.00;54.50
12477;DHT22;6303;51.504;6.300;2023-01-15T01:35:16;21.00;54.50
12477;DHT22;6303;51.504;6.300;2023-01-15T01:37:48;21.00;54.50
12477;DHT22;6303;51.504;6.300;2023-01-15T01:40:16;21.00;54.60
12477;DHT22;6303;51.504;6.300;2023-01-15T01:42:43;20.90;54.50
12477;DHT22;6303;51.504;6.300;2023-01-15T01:45:20;20.90;54.60
12477;DHT22;6303;51.504;6.300;2023-01-15T01:47:53;21.00;54.60
12477;DHT22;6303;51.504;6.300;2023-01-15T01:50:21;20.90;54.60
12477;DHT22;6303;51.504;6.300;2023-01-15T01:52:52;20.90;54.50
12477;DHT22;6303;51.504;6.300;2023-01-15T01:55:22;21.00;54.50
12477;DHT22;6303;51.504;6.300;2023-01-15T01:57:51;20.90;54.50
12477;DHT22;6303;51.504;6.300;2023-01-15T02:00:21;20.90;54.50
12477;DHT22;6303;51.504;6.300;2023-01-15T02:02:53;20.90;54.40
12477;DHT22;6303;51.504;6.300;2023-01-15T02:05:26;20.90;54.40
12477;DHT22;6303;51.504;6.300;2023-01-15T02:07:55;21.00;54.50
12477;DHT22;6303;51.504;6.300;2023-01-15T02:10:22;20.90;54.40
12477;DHT22;6303;51.504;6.300;2023-01-15T02:12:55;20.90;54.40
12477;DHT22;6303;51.504;6.300;2023-01-15T02:15:32;20.90;54.40
12477;DHT22;6303;51.504;6.300;2023-01-15T02:18:07;20.90;54.40
12477;DHT22;6303;51.504;6.300;2023-01-15T02:20:38;20.80;53.90
12477;DHT22;6303;51.504;6.300;2023-01-15T02:23:27;20.90;54.50
12477;DHT22;6303;51.504;6.300;2023-01-15T02:26:12;20.90;54.40
12477;DHT22;6303;51.504;6.300;2023-01-15T02:28:49;20.80;54.40
12477;DHT22;6303;51.504;6.300;2023-01-15T02:31:23;20.90;54.40
12477;DHT22;6303;51.504;6.300;2023-01-15T02:33:56;20.90;54.40
12477;DHT22;6303;51.504;6.300;2023-01-15T02:36:26;20.80;54.30
12477;DHT22;6303;51.504;6.300;2023-01-15T02:38:58;20.90;54.40
12477;DHT22;6303;51.504;6.300;2023-01-15T02:41:32;20.90;54.40
12477;DHT22;6303;51.504;6.300;2023-01-15T02:44:04;20.80;54.30
12477;DHT22;6303;51.504;6.300;2023-01-15T02:46:35;20.90;54.30
12477;DHT22;6303;51.504;6.300;2023-01-15T02:49:08;20.80;53.90
12477;DHT22;6303;51.504;6.300;2023-01-15T02:51:40;20.80;54.40
12477;DHT22;6303;51.504;6.300;2023-01-15T02:54:13;20.80;54.50
12477;DHT22;6303;51.504;6.300;2023-01-15T02:56:44;20.80;54.60
12477;DHT22;6303;51.504;6.300;2023-01-15T02:59:17;20.80;54.70
12477;DHT22;6303;51.504;6.300;2023-01-15T03:01:50;20.80;54.70
12477;DHT22;6303;51.504;6.300;2023-01-15T03:04:22;20.80;54.60
12477;DHT22;6303;51.504;6.300;2023-01-15T03:06:57;20.20;54.40
12477;DHT22;6303;51.504;6.300;2023-01-15T03:09:27;20.80;54.70
12477;DHT22;6303;51.504;6.300;2023-01-15T03:12:03;20.80;54.80
12477;DHT22;6303;51.504;6.300;2023-01-15T03:14:41;20.80;54.80
12477;DHT22;6303;51.504;6.300;2023-01-15T03:17:14;20.80;54.80
12477;DHT22;6303;51.504;6.300;2023-01-15T03:19:44;20.70;54.70
12477;DHT22;6303;51.504;6.300;2023-01-15T03:22:22;20.80;54.80
12477;DHT22;6303;51.504;6.300;2023-01-15T03:24:53;21.50;55.10
12477;DHT22;6303;51.504;6.300;2023-01-15T03:27:21;20.80;54.70
12477;DHT22;6303;51.504;6.300;2023-01-15T03:29:59;20.80;54.70
12477;DHT22;6303;51.504;6.300;2023-01-15T03:32:28;20.80;54.70
12477;DHT22;6303;51.504;6.300;2023-01-15T03:34:56;20.80;54.70
12477;DHT22;6303;51.504;6.300;2023-01-15T03:37:24;20.80;54.70
12477;DHT22;6303;51.504;6.300;2023-01-15T03:39:54;20.80;54.20
12477;DHT22;6303;51.504;6.300;2023-01-15T03:42:32;20.80;54.70
12477;DHT22;6303;51.504;6.300;2023-01-15T03:45:07;20.80;54.60
12477;DHT22;6303;51.504;6.300;2023-01-15T03:47:44;20.80;54.60
12477;DHT22;6303;51.504;6.300;2023-01-15T03:50:21;20.80;54.60
12477;DHT22;6303;51.504;6.300;2023-01-15T03:52:57;20.80;54.60
12477;DHT22;6303;51.504;6.300;2023-01-15T03:55:35;20.80;54.60
12477;DHT22;6303;51.504;6.300;2023-01-15T03:58:11;20.80;54.60
12477;DHT22;6303;51.504;6.300;2023-01-15T04:00:45;20.80;54.60
12477;DHT22;6303;51.504;6.300;2023-01-15T04:03:17;20.80;54.60
12477;DHT22;6303;51.504;6.300;2023-01-15T04:05:46;20.80;54.50
12477;DHT22;6303;51.504;6.300;2023-01-15T04:08:15;20.80;55.20
12477;DHT22;6303;51.504;6.300;2023-01-15T04:10:51;20.80;54.00
12477;DHT22;6303;51.504;6.300;2023-01-15T04:13:19;20.80;54.50
12477;DHT22;6303;51.504;6.300;2023-01-15T04:15:48;20.80;54.50
12477;DHT22;6303;51.504;6.300;2023-01-15T04:18:17;20.80;54.50
12477;DHT22;6303;51.504;6.300;2023-01-15T04:20:45;20.80;55.10
12477;DHT22;6303;51.504;6.300;2023-01-15T04:23:13;20.80;54.50
12477;DHT22;6303;51.504;6.300;2023-01-15T04:25:40;20.80;54.40
12477;DHT22;6303;51.504;6.300;2023-01-15T04:28:08;20.80;54.50
12477;DHT22;6303;51.504;6.300;2023-01-15T04:30:36;20.80;53.90
12477;DHT22;6303;51.504;6.300;2023-01-15T04:33:04;20.80;54.50
12477;DHT22;6303;51.504;6.300;2023-01-15T04:35:31;20.80;54.50
12477;DHT22;6303;51.504;6.300;2023-01-15T04:38:00;20.80;54.40
12477;DHT22;6303;51.504;6.300;2023-01-15T04:40:27;20.80;54.40
12477;DHT22;6303;51.504;6.300;2023-01-15T04:43:10;20.80;54.30
12477;DHT22;6303;51.504;6.300;2023-01-15T04:45:54;20.80;54.30
12477;DHT22;6303;51.504;6.300;2023-01-15T04:48:23;21.00;55.70
12477;DHT22;6303;51.504;6.300;2023-01-15T04:50:50;20.80;54.30
12477;DHT22;6303;51.504;6.300;2023-01-15T04:53:17;20.80;54.30
12477;DHT22;6303;51.504;6.300;2023-01-15T04:55:44;20.80;54.30
12477;DHT22;6303;51.504;6.300;2023-01-15T04:58:11;20.80;54.30
12477;DHT22;6303;51.504;6.300;2023-01-15T05:00:38;20.80;54.40
12477;DHT22;6303;51.504;6.300;2023-01-15T05:03:05;20.70;54.30
12477;DHT22;6303;51.504;6.300;2023-01-15T05:05:34;20.70;54.30
12477;DHT22;6303;51.504;6.300;2023-01-15T05:08:01;20.70;54.30
12477;DHT22;6303;51.504;6.300;2023-01-15T05:10:28;20.70;54.20
12477;DHT22;6303;51.504;6.300;2023-01-15T05:12:55;20.80;54.30
12477;DHT22;6303;51.504;6.300;2023-01-15T05:15:22;20.80;54.20
12477;DHT22;6303;51.504;6.300;2023-01-15T05:17:49;20.80;54.20
12477;DHT22;6303;51.504;6.300;2023-01-15T05:20:16;20.70;54.20
12477;DHT22;6303;51.504;6.300;2023-01-15T05:22:44;19.40;53.60
12477;DHT22;6303;51.504;6.300;2023-01-15T05:25:11;20.70;54.10
12477;DHT22;6303;51.504;6.300;2023-01-15T05:27:38;20.70;54.20
12477;DHT22;6303;51.504;6.300;2023-01-15T05:30:08;20.70;54.10
12477;DHT22;6303;51.504;6.300;2023-01-15T05:32:35;20.70;54.10
12477;DHT22;6303;51.504;6.300;2023-01-15T05:35:03;20.70;54.20
12477;DHT22;6303;51.504;6.300;2023-01-15T05:37:30;20.70;54.20
12477;DHT22;6303;51.504;6.300;2023-01-15T05:39:58;20.70;53.70
12477;DHT22;6303;51.504;6.300;2023-01-15T05:42:25;20.70;54.20
12477;DHT22;6303;51.504;6.300;2023-01-15T05:44:52;17.80;52.80
12477;DHT22;6303;51.504;6.300;2023-01-15T05:47:19;20.70;54.20
12477;DHT22;6303;51.504;6.300;2023-01-15T05:49:46;20.70;54.20
12477;DHT22;6303;51.504;6.300;2023-01-15T05:52:14;20.70;54.10
12477;DHT22;6303;51.504;6.300;2023-01-15T05:54:41;20.80;54.10
12477;DHT22;6303;51.504;6.300;2023-01-15T05:57:11;20.80;54.10
12477;DHT22;6303;51.504;6.300;2023-01-15T05:59:39;20.70;53.60
12477;DHT22;6303;51.504;6.300;2023-01-15T06:02:06;23.10;55.30
12477;DHT22;6303;51.504;6.300;2023-01-15T06:04:33;20.70;54.00
12477;DHT22;6303;51.504;6.300;2023-01-15T06:07:00;20.70;54.00
12477;DHT22;6303;51.504;6.300;2023-01-15T06:09:27;20.70;54.00
12477;DHT22;6303;51.504;6.300;2023-01-15T06:11:54;20.80;54.00
12477;DHT22;6303;51.504;6.300;2023-01-15T06:14:23;20.70;54.10
12477;DHT22;6303;51.504;6.300;2023-01-15T06:16:50;18.90;53.00
12477;DHT22;6303;51.504;6.300;2023-01-15T06:19:17;20.70;53.90
12477;DHT22;6303;51.504;6.300;2023-01-15T06:21:44;20.80;53.90
12477;DHT22;6303;51.504;6.300;2023-01-15T06:24:12;20.80;53.90
12477;DHT22;6303;51.504;6.300;2023-01-15T06:26:41;20.70;53.80
12477;DHT22;6303;51.504;6.300;2023-01-15T06:29:08;20.70;53.90
12477;DHT22;6303;51.504;6.300;2023-01-15T06:31:36;20.80;53.90
12477;DHT22;6303;51.504;6.300;2023-01-15T06:34:04;20.80;53.80
12477;DHT22;6303;51.504;6.300;2023-01-15T06:36:31;20.70;53.80
12477;DHT22;6303;51.504;6.300;2023-01-15T06:38:58;20.70;53.80
12477;DHT22;6303;51.504;6.300;2023-01-15T06:41:25;20.70;53.90
12477;DHT22;6303;51.504;6.300;2023-01-15T06:44:12;20.70;53.80
12477;DHT22;6303;51.504;6.300;2023-01-15T06:47:00;20.70;54.00
12477;DHT22;6303;51.504;6.300;2023-01-15T06:49:47;20.70;53.50
12477;DHT22;6303;51.504;6.300;2023-01-15T06:52:14;20.70;54.00
12477;DHT22;6303;51.504;6.300;2023-01-15T06:54:41;20.70;53.90
12477;DHT22;6303;51.504;6.300;2023-01-15T06:57:08;20.70;53.90
12477;DHT22;6303;51.504;6.300;2023-01-15T06:59:35;20.70;53.80
12477;DHT22;6303;51.504;6.300;2023-01-15T07:02:03;20.70;53.70
12477;DHT22;6303;51.504;6.300;2023-01-15T07:04:31;20.80;53.70
12477;DHT22;6303;51.504;6.300;2023-01-15T07:06:58;20.80;53.70
12477;DHT22;6303;51.504;6.300;2023-01-15T07:09:25;20.80;53.60
12477;DHT22;6303;51.504;6.300;2023-01-15T07:11:52;20.80;53.60
12477;DHT22;6303;51.504;6.300;2023-01-15T07:14:20;20.80;53.60
12477;DHT22;6303;51.504;6.300;2023-01-15T07:16:48;20.70;53.50
12477;DHT22;6303;51.504;6.300;2023-01-15T07:19:17;20.70;53.30
12477;DHT22;6303;51.504;6.300;2023-01-15T07:21:44;20.70;53.60
12477;DHT22;6303;51.504;6.300;2023-01-15T07:24:12;20.70;53.70
12477;DHT22;6303;51.504;6.300;2023-01-15T07:26:40;20.70;53.70
12477;DHT22;6303;51.504;6.300;2023-01-15T07:29:08;20.70;53.60
12477;DHT22;6303;51.504;6.300;2023-01-15T07:31:35;20.70;53.50
12477;DHT22;6303;51.504;6.300;2023-01-15T07:34:02;23.50;54.90
12477;DHT22;6303;51.504;6.300;2023-01-15T07:36:31;20.70;53.40
12477;DHT22;6303;51.504;6.300;2023-01-15T07:38:58;20.70;53.40
12477;DHT22;6303;51.504;6.300;2023-01-15T07:41:25;20.70;53.40
12477;DHT22;6303;51.504;6.300;2023-01-15T07:44:10;20.70;53.40
12477;DHT22;6303;51.504;6.300;2023-01-15T07:46:55;20.70;53.40
12477;DHT22;6303;51.504;6.300;2023-01-15T07:49:41;20.70;53.40
12477;DHT22;6303;51.504;6.300;2023-01-15T07:52:14;20.70;53.40
12477;DHT22;6303;51.504;6.300;2023-01-15T07:54:41;20.70;53.40
12477;DHT22;6303;51.504;6.300;2023-01-15T07:57:09;20.60;53.40
12477;DHT22;6303;51.504;6.300;2023-01-15T07:59:36;22.30;54.20
12477;DHT22;6303;51.504;6.300;2023-01-15T08:02:03;20.60;53.40
12477;DHT22;6303;51.504;6.300;2023-01-15T08:04:30;20.60;53.30
12477;DHT22;6303;51.504;6.300;2023-01-15T08:06:58;20.60;53.40
12477;DHT22;6303;51.504;6.300;2023-01-15T08:09:27;20.60;53.40
12477;DHT22;6303;51.504;6.300;2023-01-15T08:11:57;20.60;53.30
12477;DHT22;6303;51.504;6.300;2023-01-15T08:14:42;20.60;53.30
12477;DHT22;6303;51.504;6.300;2023-01-15T08:17:26;20.60;53.30
12477;DHT22;6303;51.504;6.300;2023-01-15T08:19:54;20.70;53.30
12477;DHT22;6303;51.504;6.300;2023-01-15T08:22:21;20.70;53.20
12477;DHT22;6303;51.504;6.300;2023-01-15T08:24:50;20.70;53.10
12477;DHT22;6303;51.504;6.300;2023-01-15T08:27:17;20.70;53.10
12477;DHT22;6303;51.504;6.300;2023-01-15T08:29:44;20.60;53.10
12477;DHT22;6303;51.504;6.300;2023-01-15T08:32:11;20.60;53.10
12477;DHT22;6303;51.504;6.300;2023-01-15T08:34:38;20.60;53.00
12477;DHT22;6303;51.504;6.300;2023-01-15T08:37:05;20.60;53.00
12477;DHT22;6303;51.504;6.300;2023-01-15T08:39:32;20.70;52.90
12477;DHT22;6303;51.504;6.300;2023-01-15T08:42:00;20.60;52.80
12477;DHT22;6303;51.504;6.300;2023-01-15T08:44:27;20.70;52.70
12477;DHT22;6303;51.504;6.300;2023-01-15T08:46:54;20.70;52.70
12477;DHT22;6303;51.504;6.300;2023-01-15T08:49:21;20.50;52.60
12477;DHT22;6303;51.504;6.300;2023-01-15T08:51:49;20.60;52.50
12477;DHT22;6303;51.504;6.300;2023-01-15T08:54:19;20.60;52.50
12477;DHT22;6303;51.504;6.300;2023-01-15T08:56:46;20.70;52.50
12477;DHT22;6303;51.504;6.300;2023-01-15T08:59:16;20.90;52.30
12477;DHT22;6303;51.504;6.300;2023-01-15T09:01:43;21.10;51.80
12477;DHT22;6303;51.504;6.300;2023-01-15T09:04:12;21.30;51.30
12477;DHT22;6303;51.504;6.300;2023-01-15T09:06:40;21.50;50.90
12477;DHT22;6303;51.504;6.300;2023-01-15T09:09:07;21.70;51.20
12477;DHT22;6303;51.504;6.300;2023-01-15T09:11:34;21.80;50.20
12477;DHT22;6303;51.504;6.300;2023-01-15T09:14:05;22.00;49.90
12477;DHT22;6303;51.504;6.300;2023-01-15T09:16:34;22.10;49.60
12477;DHT22;6303;51.504;6.300;2023-01-15T09:19:01;22.20;49.40
12477;DHT22;6303;51.504;6.300;2023-01-15T09:21:28;22.20;49.20
12477;DHT22;6303;51.504;6.300;2023-01-15T09:23:55;22.30;49.00
12477;DHT22;6303;51.504;6.300;2023-01-15T09:26:27;22.30;48.90
12477;DHT22;6303;51.504;6.300;2023-01-15T09:28:54;22.40;48.70
12477;DHT22;6303;51.504;6.300;2023-01-15T09:31:22;22.40;48.60
12477;DHT22;6303;51.504;6.300;2023-01-15T09:33:50;22.50;48.50
12477;DHT22;6303;51.504;6.300;2023-01-15T09:36:20;22.50;48.40
12477;DHT22;6303;51.504;6.300;2023-01-15T09:38:48;22.60;48.30
12477;DHT22;6303;51.504;6.300;2023-01-15T09:41:16;22.50;48.20
12477;DHT22;6303;51.504;6.300;2023-01-15T09:44:19;22.50;48.20
12477;DHT22;6303;51.504;6.300;2023-01-15T09:46:59;22.40;48.20
12477;DHT22;6303;51.504;6.300;2023-01-15T09:52:24;22.50;48.20
12477;DHT22;6303;51.504;6.300;2023-01-15T09:55:01;22.50;48.00
12477;DHT22;6303;51.504;6.300;2023-01-15T09:57:30;22.50;47.90
12477;DHT22;6303;51.504;6.300;2023-01-15T09:59:58;22.60;48.00
12477;DHT22;6303;51.504;6.300;2023-01-15T10:02:41;22.60;47.80
12477;DHT22;6303;51.504;6.300;2023-01-15T10:05:17;22.60;47.70
12477;DHT22;6303;51.504;6.300;2023-01-15T10:07:51;22.60;47.70
12477;DHT22;6303;51.504;6.300;2023-01-15T10:10:22;22.60;47.80
12477;DHT22;6303;51.504;6.300;2023-01-15T10:12:53;22.50;47.80
12477;DHT22;6303;51.504;6.300;2023-01-15T10:15:26;22.60;47.70
12477;DHT22;6303;51.504;6.300;2023-01-15T10:17:57;22.70;47.50
12477;DHT22;6303;51.504;6.300;2023-01-15T10:20:43;22.70;47.50
12477;DHT22;6303;51.504;6.300;2023-01-15T10:23:30;22.60;47.50
12477;DHT22;6303;51.504;6.300;2023-01-15T10:26:02;22.60;47.60
12477;DHT22;6303;51.504;6.300;2023-01-15T10:28:38;23.10;49.00
12477;DHT22;6303;51.504;6.300;2023-01-15T10:31:13;22.70;47.40
12477;DHT22;6303;51.504;6.300;2023-01-15T10:33:57;22.80;47.30
12477;DHT22;6303;51.504;6.300;2023-01-15T10:36:34;22.80;47.40
12477;DHT22;6303;51.504;6.300;2023-01-15T10:39:13;22.90;47.30
12477;DHT22;6303;51.504;6.300;2023-01-15T10:42:03;22.80;46.70
12477;DHT22;6303;51.504;6.300;2023-01-15T10:44:41;22.80;47.10
12477;DHT22;6303;51.504;6.300;2023-01-15T10:47:12;22.80;47.30
12477;DHT22;6303;51.504;6.300;2023-01-15T10:49:40;22.80;47.40
12477;DHT22;6303;51.504;6.300;2023-01-15T10:52:18;22.80;47.40
12477;DHT22;6303;51.504;6.300;2023-01-15T10:54:50;22.80;47.30
12477;DHT22;6303;51.504;6.300;2023-01-15T10:57:27;22.60;47.20
12477;DHT22;6303;51.504;6.300;2023-01-15T11:00:00;22.60;47.30
12477;DHT22;6303;51.504;6.300;2023-01-15T11:02:33;22.60;47.30
12477;DHT22;6303;51.504;6.300;2023-01-15T11:05:01;22.60;47.30
12477;DHT22;6303;51.504;6.300;2023-01-15T11:07:35;22.50;47.30
12477;DHT22;6303;51.504;6.300;2023-01-15T11:10:09;22.50;47.40
12477;DHT22;6303;51.504;6.300;2023-01-15T11:12:39;22.50;47.50
12477;DHT22;6303;51.504;6.300;2023-01-15T11:15:25;22.50;47.60
12477;DHT22;6303;51.504;6.300;2023-01-15T11:18:21;22.40;47.50
12477;DHT22;6303;51.504;6.300;2023-01-15T11:21:11;22.40;47.50
12477;DHT22;6303;51.504;6.300;2023-01-15T11:23:38;22.40;47.70
12477;DHT22;6303;51.504;6.300;2023-01-15T11:26:06;22.30;47.70
12477;DHT22;6303;51.504;6.300;2023-01-15T11:28:36;22.50;49.50
12477;DHT22;6303;51.504;6.300;2023-01-15T11:31:05;22.30;47.80
12477;DHT22;6303;51.504;6.300;2023-01-15T11:33:33;22.30;47.70
12477;DHT22;6303;51.504;6.300;2023-01-15T11:36:02;22.30;47.70
12477;DHT22;6303;51.504;6.300;2023-01-15T11:38:30;22.30;49.20
12477;DHT22;6303;51.504;6.300;2023-01-15T11:41:03;22.30;47.70
12477;DHT22;6303;51.504;6.300;2023-01-15T11:43:30;22.40;47.60
12477;DHT22;6303;51.504;6.300;2023-01-15T11:46:34;22.40;47.50
12477;DHT22;6303;51.504;6.300;2023-01-15T11:49:20;22.50;47.60
12477;DHT22;6303;51.504;6.300;2023-01-15T11:52:05;22.60;47.20
12477;DHT22;6303;51.504;6.300;2023-01-15T11:54:36;22.60;47.10
12477;DHT22;6303;51.504;6.300;2023-01-15T11:57:05;22.70;47.10
12477;DHT22;6303;51.504;6.300;2023-01-15T11:59:32;22.70;47.10
12477;DHT22;6303;51.504;6.300;2023-01-15T12:02:02;22.60;47.10
12477;DHT22;6303;51.504;6.300;2023-01-15T12:04:34;22.50;47.10
12477;DHT22;6303;51.504;6.300;2023-01-15T12:07:04;22.50;47.50
12477;DHT22;6303;51.504;6.300;2023-01-15T12:09:51;22.50;47.70
12477;DHT22;6303;51.504;6.300;2023-01-15T12:12:30;22.50;47.80
12477;DHT22;6303;51.504;6.300;2023-01-15T12:15:18;22.50;47.80
12477;DHT22;6303;51.504;6.300;2023-01-15T12:18:08;22.50;47.90
12477;DHT22;6303;51.504;6.300;2023-01-15T12:20:51;22.60;48.30
12477;DHT22;6303;51.504;6.300;2023-01-15T12:23:43;22.80;48.90
12477;DHT22;6303;51.504;6.300;2023-01-15T12:26:19;22.80;49.60
12477;DHT22;6303;51.504;6.300;2023-01-15T12:28:55;22.90;49.60
12477;DHT22;6303;51.504;6.300;2023-01-15T12:31:26;22.10;50.70
12477;DHT22;6303;51.504;6.300;2023-01-15T12:33:59;22.90;51.20
12477;DHT22;6303;51.504;6.300;2023-01-15T12:36:32;22.90;51.90
12477;DHT22;6303;51.504;6.300;2023-01-15T12:39:00;23.00;52.20
12477;DHT22;6303;51.504;6.300;2023-01-15T12:41:30;23.00;52.40
12477;DHT22;6303;51.504;6.300;2023-01-15T12:44:15;23.00;52.20
12477;DHT22;6303;51.504;6.300;2023-01-15T12:47:00;23.00;51.60
12477;DHT22;6303;51.504;6.300;2023-01-15T12:49:33;23.10;51.20
12477;DHT22;6303;51.504;6.300;2023-01-15T12:52:07;23.00;50.90
12477;DHT22;6303;51.504;6.300;2023-01-15T12:54:39;23.00;50.40
12477;DHT22;6303;51.504;6.300;2023-01-15T12:57:15;23.00;50.30
12477;DHT22;6303;51.504;6.300;2023-01-15T12:59:47;23.00;50.60
12477;DHT22;6303;51.504;6.300;2023-01-15T13:02:20;23.20;50.50
12477;DHT22;6303;51.504;6.300;2023-01-15T13:04:50;23.30;50.40
12477;DHT22;6303;51.504;6.300;2023-01-15T13:07:23;23.30;49.90
12477;DHT22;6303;51.504;6.300;2023-01-15T13:09:56;23.30;49.30
12477;DHT22;6303;51.504;6.300;2023-01-15T13:12:27;23.20;49.30
12477;DHT22;6303;51.504;6.300;2023-01-15T13:14:55;23.10;49.30
12477;DHT22;6303;51.504;6.300;2023-01-15T13:17:28;23.00;49.30
12477;DHT22;6303;51.504;6.300;2023-01-15T13:20:17;22.90;49.30
12477;DHT22;6303;51.504;6.300;2023-01-15T13:22:53;22.90;49.40
12477;DHT22;6303;51.504;6.300;2023-01-15T13:25:28;22.80;49.30
12477;DHT22;6303;51.504;6.300;2023-01-15T13:28:10;22.70;49.50
12477;DHT22;6303;51.504;6.300;2023-01-15T13:30:50;22.60;49.60
12477;DHT22;6303;51.504;6.300;2023-01-15T13:33:24;22.60;49.70
12477;DHT22;6303;51.504;6.300;2023-01-15T13:35:56;22.60;49.60
12477;DHT22;6303;51.504;6.300;2023-01-15T13:38:28;22.50;49.60
12477;DHT22;6303;51.504;6.300;2023-01-15T13:40:56;22.50;49.70
12477;DHT22;6303;51.504;6.300;2023-01-15T13:43:31;22.50;49.70
12477;DHT22;6303;51.504;6.300;2023-01-15T13:46:00;22.50;49.70
12477;DHT22;6303;51.504;6.300;2023-01-15T13:48:31;22.50;49.60
12477;DHT22;6303;51.504;6.300;2023-01-15T13:51:03;22.50;49.40
12477;DHT22;6303;51.504;6.300;2023-01-15T13:53:32;22.50;49.30
12477;DHT22;6303;51.504;6.300;2023-01-15T13:56:02;22.50;49.30
12477;DHT22;6303;51.504;6.300;2023-01-15T13:58:32;22.40;49.30
12477;DHT22;6303;51.504;6.300;2023-01-15T14:01:05;22.40;49.30
12477;DHT22;6303;51.504;6.300;2023-01-15T14:03:33;22.40;49.20
12477;DHT22;6303;51.504;6.300;2023-01-15T14:06:04;22.40;49.30
12477;DHT22;6303;51.504;6.300;2023-01-15T14:08:39;22.30;49.20
12477;DHT22;6303;51.504;6.300;2023-01-15T14:11:33;22.30;49.20
12477;DHT22;6303;51.504;6.300;2023-01-15T14:14:21;22.30;49.20
12477;DHT22;6303;51.504;6.300;2023-01-15T14:16:56;22.30;49.10
12477;DHT22;6303;51.504;6.300;2023-01-15T14:19:53;22.40;48.90
12477;DHT22;6303;51.504;6.300;2023-01-15T14:22:39;22.40;48.60
12477;DHT22;6303;51.504;6.300;2023-01-15T14:28:23;22.20;49.00
12477;DHT22;6303;51.504;6.300;2023-01-15T14:31:27;22.10;49.20
12477;DHT22;6303;51.504;6.300;2023-01-15T14:34:10;22.00;49.20
12477;DHT22;6303;51.504;6.300;2023-01-15T14:36:45;22.00;49.30
12477;DHT22;6303;51.504;6.300;2023-01-15T14:39:29;21.90;49.60
12477;DHT22;6303;51.504;6.300;2023-01-15T14:42:03;21.80;49.80
12477;DHT22;6303;51.504;6.300;2023-01-15T14:44:58;21.80;49.80
12477;DHT22;6303;51.504;6.300;2023-01-15T14:47:29;21.90;49.60
12477;DHT22;6303;51.504;6.300;2023-01-15T14:52:44;22.50;48.90
12477;DHT22;6303;51.504;6.300;2023-01-15T14:55:13;22.60;48.70
12477;DHT22;6303;51.504;6.300;2023-01-15T14:57:42;22.70;48.60
12477;DHT22;6303;51.504;6.300;2023-01-15T15:00:15;22.70;48.60
12477;DHT22;6303;51.504;6.300;2023-01-15T15:02:46;22.60;48.60
12477;DHT22;6303;51.504;6.300;2023-01-15T15:05:15;22.40;48.40
12477;DHT22;6303;51.504;6.300;2023-01-15T15:07:45;22.40;48.60
12477;DHT22;6303;51.504;6.300;2023-01-15T15:10:23;22.30;48.70
12477;DHT22;6303;51.504;6.300;2023-01-15T15:12:57;22.20;48.70
12477;DHT22;6303;51.504;6.300;2023-01-15T15:15:35;22.20;48.70
12477;DHT22;6303;51.504;6.300;2023-01-15T15:18:12;22.20;48.40
12477;DHT22;6303;51.504;6.300;2023-01-15T15:20:46;22.20;48.50
12477;DHT22;6303;51.504;6.300;2023-01-15T15:23:19;22.10;48.50
12477;DHT22;6303;51.504;6.300;2023-01-15T15:25:54;22.10;48.50
12477;DHT22;6303;51.504;6.300;2023-01-15T15:28:21;22.10;48.40
12477;DHT22;6303;51.504;6.300;2023-01-15T15:30:49;22.10;48.40
12477;DHT22;6303;51.504;6.300;2023-01-15T15:33:18;22.10;48.40
12477;DHT22;6303;51.504;6.300;2023-01-15T15:35:49;22.10;48.50
12477;DHT22;6303;51.504;6.300;2023-01-15T15:38:18;22.10;48.50
12477;DHT22;6303;51.504;6.300;2023-01-15T15:40:50;22.00;48.20
12477;DHT22;6303;51.504;6.300;2023-01-15T15:43:24;22.00;48.00
12477;DHT22;6303;51.504;6.300;2023-01-15T15:46:22;22.00;47.90
12477;DHT22;6303;51.504;6.300;2023-01-15T15:49:08;22.00;48.10
12477;DHT22;6303;51.504;6.300;2023-01-15T15:51:37;22.00;48.00
12477;DHT22;6303;51.504;6.300;2023-01-15T15:54:11;22.00;48.20
12477;DHT22;6303;51.504;6.300;2023-01-15T15:56:45;22.00;48.10
12477;DHT22;6303;51.504;6.300;2023-01-15T15:59:26;21.90;48.10
12477;DHT22;6303;51.504;6.300;2023-01-15T16:01:54;21.70;48.30
12477;DHT22;6303;51.504;6.300;2023-01-15T16:04:21;21.60;48.40
12477;DHT22;6303;51.504;6.300;2023-01-15T16:06:49;21.60;48.40
12477;DHT22;6303;51.504;6.300;2023-01-15T16:09:20;21.60;48.60
12477;DHT22;6303;51.504;6.300;2023-01-15T16:11:50;21.60;48.80
12477;DHT22;6303;51.504;6.300;2023-01-15T16:14:18;21.50;48.80
12477;DHT22;6303;51.504;6.300;2023-01-15T16:16:47;21.50;48.70
12477;DHT22;6303;51.504;6.300;2023-01-15T16:19:18;21.50;48.70
12477;DHT22;6303;51.504;6.300;2023-01-15T16:21:47;21.50;48.80
12477;DHT22;6303;51.504;6.300;2023-01-15T16:24:27;21.50;48.70